Time;durP1;ratioP1;P1;durP2;ratioP2;P2;SDS_P1;SDS_P2;PMS_P1;PMS_P2;Temp;Humidity;BMP_temperature;BMP_pressure;BME280_temperature;BME280_humidity;BME280_pressure;Samples;Min_cycle;Max_cycle;Signal;HPM_P1;HPM_P2
2023/09/11 04:02:40;;;;;;;4.97;3.20;;;16.00;97.30;;;;;;5049378;23;20527;-82
2023/09/11 04:05:06;;;;;;;3.63;2.13;;;16.00;97.30;;;;;;4980132;28;20453;-84
2023/09/11 04:07:34;;;;;;;3.90;3.13;;;16.00;97.30;;;;;;4980042;28;20170;-84
2023/09/11 04:10:00;;;;;;;1.63;1.53;;;16.00;97.30;;;;;;4991799;28;20476;-83
2023/09/11 04:12:25;;;;;;;5.43;2.63;;;15.90;97.30;;;;;;5003287;28;20469;-84
2023/09/11 04:14:51;;;;;;;6.00;2.10;;;15.90;97.30;;;;;;5003820;28;20606;-83
2023/09/11 04:17:17;;;;;;;7.40;3.00;;;15.80;97.30;;;;;;5011321;28;20215;-82
2023/09/11 04:19:42;;;;;;;1.90;1.83;;;15.80;97.30;;;;;;5007092;28;20620;-82
2023/09/11 04:22:08;;;;;;;2.83;2.70;;;15.70;97.30;;;;;;5006882;28;20618;-83
2023/09/11 04:24:34;;;;;;;2.90;2.60;;;15.70;97.30;;;;;;5010385;28;20212;-83
2023/09/11 04:27:00;;;;;;;2.83;2.70;;;15.70;97.30;;;;;;5010480;28;20503;-83
2023/09/11 04:29:25;;;;;;;4.13;3.10;;;15.70;97.30;;;;;;5005804;28;20322;-83
2023/09/11 04:31:51;;;;;;;2.30;1.80;;;15.70;97.30;;;;;;5000162;28;20197;-82
2023/09/11 04:34:17;;;;;;;7.60;2.43;;;15.70;97.30;;;;;;5005307;28;20181;-83
2023/09/11 04:36:43;;;;;;;2.20;2.00;;;15.70;97.30;;;;;;5007978;28;20185;-82
2023/09/11 04:39:08;;;;;;;2.60;2.47;;;15.80;97.30;;;;;;5002076;28;20931;-83
2023/09/11 04:41:34;;;;;;;3.87;3.03;;;15.80;97.30;;;;;;4999104;28;20246;-83
2023/09/11 04:43:59;;;;;;;2.77;1.93;;;15.80;97.30;;;;;;5003104;28;20562;-83
2023/09/11 04:46:25;;;;;;;6.20;2.43;;;15.80;97.30;;;;;;5005396;28;20205;-82
2023/09/11 04:48:51;;;;;;;2.00;1.80;;;15.70;97.30;;;;;;5004488;28;20525;-83
2023/09/11 04:51:16;;;;;;;4.00;3.37;;;15.70;97.30;;;;;;5008543;28;20224;-82
2023/09/11 04:53:42;;;;;;;4.90;2.90;;;15.70;97.30;;;;;;5005066;28;20181;-82
2023/09/11 04:56:07;;;;;;;4.70;2.33;;;15.70;97.30;;;;;;5002028;28;20280;-83
2023/09/11 04:58:33;;;;;;;3.37;2.33;;;15.70;97.30;;;;;;5006778;28;20272;-83
2023/09/11 05:00:58;;;;;;;2.70;2.50;;;15.70;97.30;;;;;;5003885;28;20726;-83
2023/09/11 05:03:24;;;;;;;3.10;2.10;;;15.70;97.30;;;;;;5007740;28;20236;-82
2023/09/11 05:05:50;;;;;;;2.50;1.97;;;15.70;97.30;;;;;;5000824;28;20678;-82
2023/09/11 05:08:15;;;;;;;3.60;2.30;;;15.70;97.30;;;;;;4995842;28;20181;-83
2023/09/11 05:10:42;;;;;;;5.03;3.03;;;15.70;97.30;;;;;;5006601;28;20202;-83
2023/09/11 05:13:07;;;;;;;4.17;3.10;;;15.70;97.30;;;;;;5012277;28;20227;-82
2023/09/11 05:15:33;;;;;;;2.60;2.40;;;15.70;97.30;;;;;;5005019;28;20436;-83
2023/09/11 05:17:58;;;;;;;2.27;2.07;;;15.70;97.30;;;;;;4994760;28;20200;-82
2023/09/11 05:20:24;;;;;;;5.17;2.97;;;15.80;97.30;;;;;;4993344;28;20562;-81
2023/09/11 05:22:49;;;;;;;3.67;2.70;;;15.80;97.30;;;;;;4992664;28;20178;-82
2023/09/11 05:25:15;;;;;;;3.50;2.40;;;15.80;97.30;;;;;;4999492;28;20209;-83
2023/09/11 05:27:41;;;;;;;5.53;3.27;;;15.90;97.30;;;;;;4997046;28;20200;-83
2023/09/11 05:30:07;;;;;;;4.10;2.53;;;16.00;97.30;;;;;;5001725;28;20609;-83
2023/09/11 05:32:32;;;;;;;4.07;2.20;;;16.00;97.30;;;;;;5002043;28;20201;-83
2023/09/11 05:34:58;;;;;;;5.17;2.70;;;16.10;97.30;;;;;;5009784;28;20424;-83
2023/09/11 05:37:24;;;;;;;5.30;3.67;;;16.10;97.30;;;;;;4994835;28;20185;-82
2023/09/11 05:39:49;;;;;;;2.07;1.93;;;16.20;97.30;;;;;;5010590;28;20662;-83
2023/09/11 05:42:15;;;;;;;3.03;2.33;;;16.30;97.30;;;;;;5000030;28;20300;-83
2023/09/11 05:44:40;;;;;;;1.60;1.50;;;16.40;97.30;;;;;;4998029;28;20201;-84
2023/09/11 05:47:07;;;;;;;3.83;2.10;;;16.50;97.30;;;;;;4993770;28;20625;-83
2023/09/11 05:49:33;;;;;;;4.90;2.87;;;16.60;97.30;;;;;;4991868;28;20177;-84
2023/09/11 05:51:59;;;;;;;4.13;2.70;;;16.70;97.30;;;;;;5000247;28;20561;-83
2023/09/11 05:54:24;;;;;;;3.60;3.40;;;16.80;97.30;;;;;;5000702;28;20173;-82
2023/09/11 05:56:50;;;;;;;3.13;2.50;;;16.90;97.30;;;;;;4999391;28;20213;-83
2023/09/11 05:59:18;;;;;;;2.63;2.30;;;17.00;97.30;;;;;;4996663;28;20185;-83
2023/09/11 06:01:47;;;;;;;2.43;2.03;;;17.00;97.30;;;;;;5012387;28;20606;-82
2023/09/11 06:04:13;;;;;;;6.00;3.00;;;17.00;97.30;;;;;;4995940;28;20420;-81
2023/09/11 06:06:38;;;;;;;11.17;4.40;;;17.10;97.30;;;;;;5012937;28;20428;-82
2023/09/11 06:09:08;;;;;;;8.63;3.70;;;17.10;97.30;;;;;;5002763;28;20296;-82
2023/09/11 06:11:34;;;;;;;3.43;2.90;;;17.20;97.30;;;;;;4993068;28;20844;-82
2023/09/11 06:14:00;;;;;;;2.90;2.33;;;17.20;97.30;;;;;;5002711;28;20452;-83
2023/09/11 06:16:26;;;;;;;4.07;2.00;;;17.30;97.30;;;;;;5000223;28;20436;-82
2023/09/11 06:18:51;;;;;;;7.10;4.53;;;17.30;97.30;;;;;;4992408;28;20213;-81
2023/09/11 06:21:17;;;;;;;3.07;2.83;;;17.40;97.30;;;;;;4994139;28;20252;-82
2023/09/11 06:23:43;;;;;;;4.37;2.47;;;17.60;97.30;;;;;;4992724;28;20181;-82
2023/09/11 06:26:10;;;;;;;3.83;2.70;;;17.70;97.30;;;;;;4992367;28;20526;-82
2023/09/11 06:28:35;;;;;;;3.13;2.93;;;17.80;97.30;;;;;;4993663;28;20174;-83
2023/09/11 06:31:01;;;;;;;2.47;1.93;;;17.90;97.30;;;;;;5011900;28;20523;-82
2023/09/11 06:33:29;;;;;;;6.40;3.50;;;18.00;97.30;;;;;;5010718;28;20208;-82
2023/09/11 06:35:55;;;;;;;6.73;3.00;;;18.10;97.30;;;;;;5012486;28;20188;-83
2023/09/11 06:38:21;;;;;;;1.50;1.43;;;18.20;97.30;;;;;;5007631;28;20416;-84
2023/09/11 06:40:47;;;;;;;2.43;2.07;;;18.30;97.30;;;;;;5001121;28;20447;-84
2023/09/11 06:43:14;;;;;;;2.90;2.70;;;18.40;97.30;;;;;;5007295;28;20196;-82
2023/09/11 06:45:39;;;;;;;4.47;2.20;;;18.40;97.30;;;;;;5009907;28;20221;-82
2023/09/11 06:48:06;;;;;;;5.30;3.90;;;18.50;97.30;;;;;;5011311;28;20455;-83
2023/09/11 06:50:31;;;;;;;5.90;3.33;;;18.70;97.30;;;;;;4996879;28;20649;-83
2023/09/11 06:52:57;;;;;;;3.60;2.50;;;18.70;97.30;;;;;;4995610;28;20507;-82
2023/09/11 06:55:22;;;;;;;4.03;3.00;;;18.80;97.30;;;;;;4995919;28;20272;-83
2023/09/11 06:57:59;;;;;;;5.13;3.27;;;18.90;97.30;;;;;;5001667;28;20177;-84
2023/09/11 07:00:24;;;;;;;3.63;2.57;;;19.00;97.30;;;;;;4998918;28;20185;-83
2023/09/11 07:02:50;;;;;;;5.83;4.40;;;19.10;97.30;;;;;;5015576;28;20498;-84
2023/09/11 07:05:17;;;;;;;2.30;2.10;;;19.20;97.30;;;;;;5004085;28;20706;-84
2023/09/11 07:07:43;;;;;;;3.30;2.20;;;19.30;97.30;;;;;;4995111;28;20173;-84
2023/09/11 07:10:19;;;;;;;11.77;4.80;;;19.40;97.30;;;;;;5002996;28;20471;-83
2023/09/11 07:12:46;;;;;;;7.13;3.60;;;19.50;97.30;;;;;;5008977;28;20197;-84
2023/09/11 07:15:11;;;;;;;2.83;2.63;;;19.60;97.30;;;;;;5006290;28;20427;-84
2023/09/11 07:17:37;;;;;;;2.60;1.63;;;19.60;97.30;;;;;;5010854;28;20421;-83
2023/09/11 07:20:04;;;;;;;3.53;2.67;;;19.70;97.30;;;;;;4996167;28;20189;-82
2023/09/11 07:22:30;;;;;;;4.37;2.80;;;19.80;97.30;;;;;;4997302;28;20252;-83
2023/09/11 07:24:56;;;;;;;6.10;2.33;;;19.80;97.30;;;;;;5003713;28;20857;-83
2023/09/11 07:27:22;;;;;;;6.10;2.93;;;19.90;97.30;;;;;;5014847;28;20224;-84
2023/09/11 07:29:49;;;;;;;22.33;3.40;;;20.00;97.30;;;;;;5006688;28;20415;-83
2023/09/11 07:32:14;;;;;;;5.17;3.57;;;20.10;97.30;;;;;;5006276;28;20679;-83
2023/09/11 07:34:40;;;;;;;9.00;3.13;;;20.10;97.30;;;;;;5016006;28;20420;-83
2023/09/11 07:37:06;;;;;;;4.97;2.40;;;20.20;97.30;;;;;;5005265;28;20223;-83
2023/09/11 07:39:31;;;;;;;4.70;2.93;;;20.30;97.30;;;;;;4998719;28;20697;-81
2023/09/11 07:41:57;;;;;;;9.53;6.00;;;20.30;97.30;;;;;;4997685;28;20212;-84
2023/09/11 07:44:22;;;;;;;3.60;3.30;;;20.40;97.30;;;;;;5002633;28;20189;-84
2023/09/11 07:46:48;;;;;;;4.77;3.43;;;20.50;97.30;;;;;;4995449;28;20548;-84
2023/09/11 07:49:14;;;;;;;3.33;2.50;;;20.60;97.30;;;;;;5010362;28;20188;-84
2023/09/11 07:51:40;;;;;;;3.50;2.87;;;20.70;97.30;;;;;;4993881;28;20437;-84
2023/09/11 07:54:05;;;;;;;5.53;5.23;;;20.80;97.30;;;;;;5002930;28;20178;-83
2023/09/11 07:56:31;;;;;;;4.70;2.70;;;20.80;97.30;;;;;;5006301;28;20181;-84
2023/09/11 07:58:56;;;;;;;2.83;2.60;;;20.90;97.30;;;;;;5014719;28;20188;-83
2023/09/11 08:01:22;;;;;;;4.73;3.23;;;21.00;97.30;;;;;;5013190;28;20243;-84
2023/09/11 08:03:47;;;;;;;2.27;2.10;;;21.10;97.30;;;;;;4999854;28;20648;-84
2023/09/11 08:06:14;;;;;;;2.93;2.73;;;21.10;97.30;;;;;;4995021;28;20567;-84
2023/09/11 08:08:39;;;;;;;8.33;2.70;;;21.20;97.30;;;;;;5000797;28;20423;-84
2023/09/11 08:11:16;;;;;;;3.87;3.00;;;21.30;97.30;;;;;;5002596;28;20464;-83
2023/09/11 08:13:42;;;;;;;3.37;3.10;;;21.40;97.30;;;;;;4999184;28;20196;-83
2023/09/11 08:16:08;;;;;;;3.70;2.93;;;21.40;97.30;;;;;;4997101;28;20424;-83
2023/09/11 08:18:34;;;;;;;2.73;2.53;;;21.50;97.30;;;;;;5002079;28;20452;-85
2023/09/11 08:21:00;;;;;;;3.90;2.13;;;21.60;97.30;;;;;;5001001;28;20476;-83
2023/09/11 08:23:25;;;;;;;3.70;2.73;;;21.70;97.30;;;;;;5005571;28;20180;-85
2023/09/11 08:25:56;;;;;;;4.20;3.10;;;21.80;97.30;;;;;;4999062;28;20256;-84
2023/09/11 08:28:21;;;;;;;3.67;3.47;;;21.90;97.30;;;;;;5004218;28;20188;-84
2023/09/11 08:30:47;;;;;;;3.60;2.60;;;22.00;97.30;;;;;;5009303;28;20433;-83
2023/09/11 08:33:12;;;;;;;6.50;2.40;;;22.10;97.30;;;;;;4994495;28;20181;-82
2023/09/11 08:35:38;;;;;;;4.53;2.23;;;22.10;97.30;;;;;;4999575;28;20184;-82
2023/09/11 08:38:03;;;;;;;2.63;2.43;;;22.20;97.30;;;;;;5006057;28;20217;-83
2023/09/11 08:40:33;;;;;;;2.40;2.23;;;22.20;97.30;;;;;;5004688;28;20215;-84
2023/09/11 08:42:59;;;;;;;5.07;2.90;;;22.30;97.30;;;;;;5012888;28;20200;-82
2023/09/11 08:45:26;;;;;;;3.37;2.33;;;22.40;97.30;;;;;;5012969;28;20448;-83
2023/09/11 08:47:56;;;;;;;4.00;2.23;;;22.50;97.30;;;;;;5013616;28;20421;-82
2023/09/11 08:50:25;;;;;;;2.13;1.87;;;22.60;97.30;;;;;;5013721;28;20408;-82
2023/09/11 08:52:51;;;;;;;4.33;3.30;;;22.70;97.30;;;;;;5009576;28;20875;-82
2023/09/11 08:55:19;;;;;;;3.33;2.10;;;22.80;97.30;;;;;;5021344;28;20431;-82
2023/09/11 08:57:46;;;;;;;2.50;2.30;;;22.90;97.20;;;;;;5026412;28;20417;-84
2023/09/11 09:00:13;;;;;;;8.90;2.73;;;23.10;96.50;;;;;;5011537;28;20425;-84
2023/09/11 09:02:39;;;;;;;2.70;1.80;;;23.20;96.50;;;;;;5019883;28;20515;-84
2023/09/11 09:05:06;;;;;;;6.20;3.03;;;23.30;96.50;;;;;;5006590;28;20461;-84
2023/09/11 09:07:33;;;;;;;8.60;3.70;;;23.50;96.00;;;;;;4992594;28;20414;-84
2023/09/11 09:10:00;;;;;;;3.63;2.90;;;23.50;94.90;;;;;;5005147;28;20421;-85
2023/09/11 09:12:26;;;;;;;3.13;1.83;;;23.60;94.70;;;;;;5003854;28;20436;-84
2023/09/11 09:14:52;;;;;;;2.63;2.30;;;23.70;94.20;;;;;;4997975;28;20484;-84
2023/09/11 09:17:17;;;;;;;2.70;2.43;;;23.80;93.60;;;;;;5000365;28;20421;-84
2023/09/11 09:19:43;;;;;;;2.33;2.13;;;23.90;93.20;;;;;;4996857;28;20173;-84
2023/09/11 09:22:10;;;;;;;5.80;2.23;;;24.00;93.50;;;;;;5012184;28;20296;-82
2023/09/11 09:24:45;;;;;;;3.60;2.07;;;24.10;92.50;;;;;;5012408;28;20185;-83
2023/09/11 09:27:11;;;;;;;3.63;2.03;;;24.30;92.20;;;;;;4996025;28;20427;-82
2023/09/11 09:29:38;;;;;;;7.13;2.23;;;24.40;92.40;;;;;;5000587;28;20512;-82
2023/09/11 09:32:05;;;;;;;5.40;2.73;;;24.50;92.20;;;;;;4999818;28;20205;-83
2023/09/11 09:34:32;;;;;;;2.17;1.63;;;24.60;91.90;;;;;;5009436;28;20535;-83
2023/09/11 09:36:59;;;;;;;2.37;2.17;;;24.70;91.60;;;;;;5000240;28;20923;-83
2023/09/11 09:39:28;;;;;;;5.23;2.57;;;24.80;91.10;;;;;;5008912;28;20420;-82
2023/09/11 09:42:01;;;;;;;3.97;2.93;;;25.00;91.00;;;;;;4992709;28;20826;-82
2023/09/11 09:44:37;;;;;;;2.30;1.57;;;25.10;91.10;;;;;;4992543;28;20428;-82
2023/09/11 09:47:14;;;;;;;8.10;2.43;;;25.20;89.90;;;;;;4992033;28;20416;-84
2023/09/11 09:49:54;;;;;;;1.60;1.60;;;25.30;89.60;;;;;;4992819;28;20926;-83
2023/09/11 09:52:21;;;;;;;14.23;2.80;;;25.50;89.60;;;;;;5002571;28;20553;-83
2023/09/11 09:54:50;;;;;;;9.77;2.63;;;25.60;89.30;;;;;;4999076;28;20478;-83
2023/09/11 09:57:18;;;;;;;16.40;2.90;;;25.70;89.30;;;;;;4991946;28;20422;-83
2023/09/11 09:59:52;;;;;;;5.00;2.03;;;25.80;90.10;;;;;;4992129;28;20416;-83
2023/09/11 10:02:37;;;;;;;4.10;2.17;;;25.90;88.80;;;;;;5002351;28;20876;-82
2023/09/11 10:05:08;;;;;;;3.60;2.60;;;26.10;88.20;;;;;;4998597;28;20455;-83
2023/09/11 10:07:37;;;;;;;2.73;1.90;;;26.10;87.00;;;;;;5004248;28;20500;-83
2023/09/11 10:10:22;;;;;;;2.80;2.03;;;26.20;85.20;;;;;;5011040;28;20948;-84
2023/09/11 10:13:15;;;;;;;3.07;2.10;;;26.30;85.80;;;;;;5008897;28;20416;-84
2023/09/11 10:15:43;;;;;;;3.33;1.53;;;26.30;84.90;;;;;;5024014;23;20484;-64
2023/09/11 10:18:10;;;;;;;3.70;2.60;;;26.50;84.40;;;;;;4992335;28;20435;-64
2023/09/11 10:20:37;;;;;;;12.00;2.80;;;26.60;84.80;;;;;;4984866;28;20622;-64
2023/09/11 10:23:04;;;;;;;2.83;1.83;;;26.70;84.60;;;;;;4998416;28;20467;-64
2023/09/11 10:25:43;;;;;;;6.20;1.70;;;26.80;83.90;;;;;;5001267;28;21077;-64
2023/09/11 10:28:17;;;;;;;2.83;1.57;;;26.90;83.80;;;;;;5009379;28;20416;-64
2023/09/11 10:31:04;;;;;;;5.80;2.23;;;27.10;83.80;;;;;;5001745;28;20484;-64
2023/09/11 10:33:31;;;;;;;2.63;2.00;;;27.20;83.70;;;;;;5009461;28;20427;-64
2023/09/11 10:36:02;;;;;;;4.20;1.80;;;27.30;83.10;;;;;;5009871;28;20772;-64
2023/09/11 10:38:31;;;;;;;3.90;3.00;;;27.40;83.20;;;;;;5007527;28;20490;-64
2023/09/11 10:41:00;;;;;;;3.60;1.93;;;27.50;83.70;;;;;;4996988;28;20467;-64
2023/09/11 10:43:26;;;;;;;6.00;2.17;;;27.60;83.90;;;;;;5009520;28;20919;-64
2023/09/11 10:45:52;;;;;;;7.67;2.50;;;27.70;83.50;;;;;;4989959;28;20538;-64
2023/09/11 10:48:32;;;;;;;3.33;2.03;;;27.70;83.50;;;;;;4998313;28;20437;-64
2023/09/11 10:50:58;;;;;;;4.07;2.67;;;27.90;83.40;;;;;;4991288;28;20507;-64
2023/09/11 10:53:27;;;;;;;2.27;1.60;;;28.00;82.70;;;;;;5009913;28;20430;-64
2023/09/11 10:55:54;;;;;;;2.90;1.87;;;28.10;83.20;;;;;;5010768;28;20430;-64
2023/09/11 10:58:22;;;;;;;6.23;2.00;;;28.20;82.80;;;;;;5009116;28;20997;-65
2023/09/11 11:00:53;;;;;;;12.23;2.10;;;28.20;80.90;;;;;;5010307;28;20454;-64
2023/09/11 11:03:19;;;;;;;2.40;1.97;;;28.30;81.40;;;;;;5001921;28;20421;-65
2023/09/11 11:05:45;;;;;;;3.00;2.80;;;28.40;81.80;;;;;;4994135;28;20467;-65
2023/09/11 11:08:11;;;;;;;3.10;2.27;;;28.40;81.70;;;;;;5010020;28;20254;-64
2023/09/11 11:10:41;;;;;;;4.63;2.30;;;28.50;82.70;;;;;;5008333;28;20942;-64
2023/09/11 11:13:09;;;;;;;3.70;2.83;;;28.70;82.00;;;;;;5010409;28;20230;-64
2023/09/11 11:15:35;;;;;;;1.87;1.50;;;28.80;82.00;;;;;;5009968;28;20459;-64
2023/09/11 11:18:23;;;;;;;2.60;2.20;;;28.90;81.30;;;;;;5004334;28;20892;-64
2023/09/11 11:21:03;;;;;;;2.80;2.00;;;29.00;80.90;;;;;;5002802;28;20565;-64
2023/09/11 11:23:31;;;;;;;2.50;2.30;;;29.10;81.60;;;;;;5008620;28;20519;-64
2023/09/11 11:26:06;;;;;;;2.93;2.40;;;29.10;80.60;;;;;;5003576;28;20852;-64
2023/09/11 11:28:42;;;;;;;4.87;2.50;;;29.20;79.60;;;;;;5008397;28;20465;-64
2023/09/11 11:31:12;;;;;;;10.17;2.60;;;29.20;79.30;;;;;;5009841;28;20849;-64
2023/09/11 11:33:40;;;;;;;1.73;1.47;;;29.30;80.30;;;;;;5007270;28;20522;-65
2023/09/11 11:36:09;;;;;;;3.67;2.00;;;29.40;78.80;;;;;;4990486;28;20429;-64
2023/09/11 11:38:36;;;;;;;1.83;1.63;;;29.50;78.70;;;;;;5008194;28;20424;-64
2023/09/11 11:41:03;;;;;;;5.33;3.33;;;29.60;79.30;;;;;;5004584;28;20794;-64
2023/09/11 11:43:30;;;;;;;4.00;2.00;;;29.70;80.30;;;;;;5007041;28;20416;-65
2023/09/11 11:45:56;;;;;;;5.27;2.67;;;29.80;79.70;;;;;;4994655;28;20514;-64
2023/09/11 11:48:22;;;;;;;2.17;2.00;;;29.80;78.60;;;;;;4997574;28;20962;-64
2023/09/11 11:50:49;;;;;;;5.60;3.60;;;29.90;77.40;;;;;;4995830;28;20437;-63
2023/09/11 11:53:16;;;;;;;4.43;2.60;;;29.90;77.30;;;;;;5001804;28;20284;-64
2023/09/11 11:55:42;;;;;;;2.90;2.27;;;30.00;77.40;;;;;;4992149;28;20942;-64
2023/09/11 11:58:09;;;;;;;3.60;2.47;;;30.10;77.10;;;;;;5002522;28;20516;-63
2023/09/11 12:00:37;;;;;;;3.23;2.10;;;30.20;76.70;;;;;;4990875;28;20523;-64
2023/09/11 12:03:06;;;;;;;5.00;2.90;;;30.30;77.10;;;;;;5009295;28;20426;-64
2023/09/11 12:05:33;;;;;;;3.27;2.27;;;30.30;76.90;;;;;;5007588;28;20463;-64
2023/09/11 12:08:00;;;;;;;4.53;2.97;;;30.50;76.60;;;;;;5007595;28;20686;-64
2023/09/11 12:10:25;;;;;;;2.07;1.93;;;30.50;75.80;;;;;;5007195;28;20455;-64
2023/09/11 12:12:51;;;;;;;2.73;2.20;;;30.50;74.90;;;;;;5007566;28;20586;-64
2023/09/11 12:15:17;;;;;;;1.87;1.80;;;30.40;76.00;;;;;;5008535;28;20343;-65
2023/09/11 12:17:48;;;;;;;6.17;3.00;;;30.40;76.20;;;;;;5007495;28;20214;-65
2023/09/11 12:20:16;;;;;;;1.90;1.80;;;30.40;77.20;;;;;;5007517;28;20460;-65
2023/09/11 12:22:43;;;;;;;3.13;2.60;;;30.50;76.40;;;;;;5008874;28;20964;-65
2023/09/11 12:25:10;;;;;;;3.00;2.50;;;30.50;76.30;;;;;;5008957;28;20577;-64
2023/09/11 12:27:36;;;;;;;2.97;1.70;;;30.50;77.40;;;;;;5008036;28;20466;-64
2023/09/11 12:30:05;;;;;;;9.50;3.97;;;30.60;76.60;;;;;;5009093;28;20836;-64
2023/09/11 12:32:31;;;;;;;3.57;2.53;;;30.80;74.50;;;;;;5000045;28;20431;-64
2023/09/11 12:34:56;;;;;;;4.53;2.33;;;30.90;75.70;;;;;;4989678;28;20507;-64
2023/09/11 12:37:22;;;;;;;3.37;1.87;;;31.00;75.10;;;;;;4989055;28;20517;-64
2023/09/11 12:39:48;;;;;;;3.37;2.10;;;31.10;73.40;;;;;;5000400;28;20538;-64
2023/09/11 12:42:14;;;;;;;7.37;2.40;;;31.10;73.70;;;;;;5008356;28;20690;-64
2023/09/11 12:44:40;;;;;;;2.60;2.07;;;31.20;74.00;;;;;;5007405;28;20424;-64
2023/09/11 12:47:06;;;;;;;1.97;1.67;;;31.30;75.10;;;;;;5008662;28;20173;-64
2023/09/11 12:49:32;;;;;;;2.90;2.37;;;31.40;74.90;;;;;;4991131;28;20460;-64
2023/09/11 12:51:58;;;;;;;6.63;2.03;;;31.50;73.30;;;;;;5008512;28;20702;-64
2023/09/11 12:54:24;;;;;;;2.60;2.23;;;31.60;73.00;;;;;;4991479;28;20192;-64
2023/09/11 12:56:50;;;;;;;3.03;2.50;;;31.70;72.80;;;;;;5008751;28;20512;-64
2023/09/11 12:59:16;;;;;;;2.63;2.20;;;31.70;73.70;;;;;;5007259;28;20424;-64
2023/09/11 13:01:42;;;;;;;6.30;3.27;;;31.80;73.70;;;;;;5000029;28;20678;-64
2023/09/11 13:04:07;;;;;;;5.87;3.33;;;31.90;74.10;;;;;;4996727;28;20540;-65
2023/09/11 13:06:33;;;;;;;3.80;2.03;;;32.00;73.50;;;;;;4986908;28;20248;-64
2023/09/11 13:08:58;;;;;;;2.60;1.97;;;32.10;72.40;;;;;;4992075;28;20232;-64
2023/09/11 13:11:25;;;;;;;3.53;2.40;;;32.20;70.20;;;;;;4988629;28;20201;-64
2023/09/11 13:13:50;;;;;;;2.70;1.70;;;32.20;71.10;;;;;;4988611;28;20178;-64
2023/09/11 13:16:16;;;;;;;3.33;1.97;;;32.30;69.20;;;;;;4997060;28;20471;-65
2023/09/11 13:18:41;;;;;;;2.40;1.97;;;32.30;68.80;;;;;;4997350;28;20186;-64
2023/09/11 13:21:07;;;;;;;4.77;2.57;;;32.30;68.00;;;;;;5008981;28;20213;-64
2023/09/11 13:23:32;;;;;;;1.30;1.23;;;32.40;68.50;;;;;;5006909;28;20275;-64
2023/09/11 13:25:58;;;;;;;2.00;1.90;;;32.40;67.40;;;;;;5004680;28;20221;-65
2023/09/11 13:28:24;;;;;;;1.70;1.60;;;32.40;68.60;;;;;;4988491;28;20673;-64
2023/09/11 13:30:49;;;;;;;2.00;1.87;;;32.60;69.70;;;;;;4989603;28;20206;-65
2023/09/11 13:33:15;;;;;;;3.50;2.47;;;32.70;69.40;;;;;;4990014;28;20235;-64
2023/09/11 13:35:40;;;;;;;2.23;1.77;;;32.70;67.40;;;;;;4999351;28;20195;-64
2023/09/11 13:38:06;;;;;;;2.93;2.73;;;32.60;65.80;;;;;;4992701;28;20193;-65
2023/09/11 13:40:32;;;;;;;1.53;1.37;;;32.60;64.70;;;;;;4988905;28;20240;-65
2023/09/11 13:42:57;;;;;;;1.57;1.53;;;32.60;66.80;;;;;;4989437;28;20185;-65
2023/09/11 13:45:23;;;;;;;2.23;2.00;;;32.60;66.20;;;;;;4987083;28;20689;-65
2023/09/11 13:47:49;;;;;;;1.77;1.63;;;32.60;65.70;;;;;;4987936;28;20293;-65
2023/09/11 13:50:15;;;;;;;2.67;1.70;;;32.60;66.30;;;;;;5001194;28;20185;-65
2023/09/11 13:52:41;;;;;;;2.50;1.50;;;32.70;67.40;;;;;;5007627;28;20479;-65
2023/09/11 13:55:08;;;;;;;4.67;1.73;;;32.80;68.00;;;;;;5005677;28;20197;-65
2023/09/11 13:57:33;;;;;;;3.13;2.30;;;32.90;67.40;;;;;;5004348;28;20196;-65
2023/09/11 13:59:59;;;;;;;3.50;2.30;;;33.00;67.70;;;;;;5007529;28;20428;-65
2023/09/11 14:02:24;;;;;;;1.50;1.40;;;33.00;65.70;;;;;;5000624;28;20242;-64
2023/09/11 14:04:50;;;;;;;3.73;1.83;;;33.00;65.90;;;;;;4987547;28;20189;-65
2023/09/11 14:07:17;;;;;;;1.73;1.63;;;33.00;66.40;;;;;;4994402;28;20188;-65
2023/09/11 14:09:43;;;;;;;1.70;1.47;;;33.10;67.10;;;;;;5006761;28;20638;-65
2023/09/11 14:12:08;;;;;;;2.40;2.20;;;33.20;66.80;;;;;;5002575;28;20563;-65
2023/09/11 14:14:35;;;;;;;3.07;2.27;;;33.30;66.00;;;;;;4986442;28;20452;-65
2023/09/11 14:17:01;;;;;;;2.90;1.73;;;33.40;66.30;;;;;;4995063;28;20449;-64
2023/09/11 14:19:27;;;;;;;9.50;2.67;;;33.40;66.70;;;;;;4993273;28;20442;-65
2023/09/11 14:21:52;;;;;;;8.60;2.07;;;33.40;66.40;;;;;;4990259;28;20201;-65
2023/09/11 14:24:19;;;;;;;3.80;2.17;;;33.40;66.90;;;;;;4991237;28;20188;-65
2023/09/11 14:26:45;;;;;;;3.20;1.90;;;33.50;67.60;;;;;;4997555;28;20241;-65
2023/09/11 14:29:10;;;;;;;3.20;1.73;;;33.60;68.20;;;;;;5001241;28;20461;-65
2023/09/11 14:31:36;;;;;;;3.00;2.37;;;33.60;66.80;;;;;;4994568;28;20644;-65
2023/09/11 14:34:02;;;;;;;1.60;1.50;;;33.70;66.50;;;;;;5000639;28;20679;-65
2023/09/11 14:36:28;;;;;;;5.77;2.93;;;33.70;66.30;;;;;;4994398;28;20598;-65
2023/09/11 14:38:55;;;;;;;4.70;2.27;;;33.50;64.20;;;;;;4995880;28;20685;-65
2023/09/11 14:41:20;;;;;;;4.63;2.07;;;33.20;65.40;;;;;;4994652;28;20221;-65
2023/09/11 14:43:46;;;;;;;3.33;2.70;;;33.00;65.80;;;;;;4997078;28;20867;-65
2023/09/11 14:46:11;;;;;;;3.47;2.07;;;32.80;66.40;;;;;;4992544;28;20205;-65
2023/09/11 14:48:37;;;;;;;3.27;2.20;;;32.80;67.20;;;;;;4989258;28;20599;-65
2023/09/11 14:51:02;;;;;;;1.87;1.63;;;32.80;67.70;;;;;;4989824;28;20202;-65
2023/09/11 14:53:39;;;;;;;3.73;2.77;;;32.90;66.90;;;;;;5003658;28;20561;-65
2023/09/11 14:56:05;;;;;;;2.53;2.33;;;33.00;67.80;;;;;;4998275;28;20185;-66
2023/09/11 14:58:30;;;;;;;2.83;2.43;;;33.00;68.50;;;;;;5000237;28;20478;-65
2023/09/11 15:00:56;;;;;;;3.70;2.20;;;33.00;67.80;;;;;;5013127;28;20212;-66
2023/09/11 15:03:21;;;;;;;4.67;2.60;;;33.00;67.00;;;;;;5005143;28;20276;-65
2023/09/11 15:05:47;;;;;;;1.47;1.37;;;32.90;66.00;;;;;;5009960;28;20247;-64
2023/09/11 15:08:13;;;;;;;2.70;1.50;;;32.80;67.70;;;;;;5006304;28;20185;-65
2023/09/11 15:10:42;;;;;;;2.17;1.90;;;32.80;65.50;;;;;;4998813;28;20201;-65
2023/09/11 15:13:08;;;;;;;1.90;1.77;;;32.80;65.90;;;;;;4999329;28;20625;-66
2023/09/11 15:15:34;;;;;;;2.60;1.80;;;32.90;65.70;;;;;;5006933;28;20476;-65
2023/09/11 15:17:59;;;;;;;3.90;1.93;;;33.00;66.20;;;;;;4999025;28;20483;-66
2023/09/11 15:20:25;;;;;;;2.87;2.17;;;33.10;65.00;;;;;;5005297;28;20304;-65
2023/09/11 15:22:50;;;;;;;5.00;2.53;;;33.00;63.80;;;;;;5000974;28;20593;-65
2023/09/11 15:25:16;;;;;;;2.50;2.30;;;32.80;64.90;;;;;;5010191;28;20213;-65
2023/09/11 15:27:41;;;;;;;2.63;2.43;;;32.80;66.30;;;;;;5001673;28;20188;-66
2023/09/11 15:30:07;;;;;;;3.30;2.30;;;32.80;64.60;;;;;;5001184;28;20196;-65
2023/09/11 15:32:33;;;;;;;2.60;2.03;;;32.70;65.70;;;;;;5002727;28;20186;-65
2023/09/11 15:34:59;;;;;;;2.23;1.60;;;32.60;66.40;;;;;;4995509;28;20447;-67
2023/09/11 15:37:24;;;;;;;2.10;1.63;;;32.70;66.50;;;;;;5008669;28;20319;-66
2023/09/11 15:39:50;;;;;;;2.30;2.00;;;32.60;66.80;;;;;;5000527;28;20197;-65
2023/09/11 15:42:15;;;;;;;2.77;1.67;;;32.70;67.50;;;;;;4990597;28;20198;-65
2023/09/11 15:44:41;;;;;;;2.93;1.97;;;32.80;67.60;;;;;;4998765;28;20197;-65
2023/09/11 15:47:08;;;;;;;3.40;1.90;;;32.80;68.00;;;;;;5006116;28;20185;-65
2023/09/11 15:49:33;;;;;;;2.40;1.83;;;32.90;66.50;;;;;;5004606;28;20272;-65
2023/09/11 15:52:03;;;;;;;2.40;1.93;;;32.80;66.30;;;;;;5001471;28;20538;-65
2023/09/11 15:54:29;;;;;;;2.40;1.93;;;32.80;66.90;;;;;;5003420;28;20277;-65
2023/09/11 15:56:55;;;;;;;3.70;1.97;;;32.80;66.50;;;;;;5006218;28;20473;-65
2023/09/11 15:59:20;;;;;;;3.60;1.90;;;32.70;66.40;;;;;;4995695;28;20424;-65
2023/09/11 16:01:46;;;;;;;6.90;2.23;;;32.70;67.00;;;;;;5000811;28;20755;-65
2023/09/11 16:04:12;;;;;;;2.37;1.97;;;32.70;67.20;;;;;;5003449;28;20185;-65
2023/09/11 16:06:37;;;;;;;1.47;1.43;;;32.70;67.00;;;;;;5009700;28;20288;-66
2023/09/11 16:09:03;;;;;;;4.17;1.90;;;32.60;66.60;;;;;;5008303;28;20211;-65
2023/09/11 16:11:29;;;;;;;1.73;1.70;;;32.50;66.90;;;;;;5007973;28;20287;-65
2023/09/11 16:13:54;;;;;;;3.17;1.93;;;32.40;67.00;;;;;;5009657;28;20181;-66
2023/09/11 16:16:20;;;;;;;2.70;2.00;;;32.30;67.80;;;;;;5011969;23;20230;-62
2023/09/11 16:18:45;;;;;;;4.43;2.00;;;32.30;67.80;;;;;;4990965;28;20182;-62
2023/09/11 16:21:11;;;;;;;4.10;1.90;;;32.30;67.90;;;;;;5000135;28;20367;-62
2023/09/11 16:23:41;;;;;;;2.10;1.70;;;32.30;68.50;;;;;;5009292;28;20623;-62
2023/09/11 16:26:07;;;;;;;4.07;1.90;;;32.30;69.10;;;;;;5010103;28;20226;-62
2023/09/11 16:28:32;;;;;;;3.93;2.47;;;32.30;68.90;;;;;;5010114;28;20412;-62
2023/09/11 16:30:58;;;;;;;3.03;1.87;;;32.40;69.30;;;;;;5006552;28;20456;-62
2023/09/11 16:33:23;;;;;;;3.13;2.30;;;32.40;69.20;;;;;;5004274;28;20194;-62
2023/09/11 16:35:49;;;;;;;5.87;3.73;;;32.40;69.60;;;;;;5010272;28;20646;-62
2023/09/11 16:38:14;;;;;;;24.43;1.90;;;32.40;70.60;;;;;;5008699;28;20184;-62
2023/09/11 16:40:40;;;;;;;2.20;1.90;;;32.50;70.20;;;;;;5009804;28;20223;-62
2023/09/11 16:43:08;;;;;;;2.47;2.00;;;32.40;70.50;;;;;;5009936;28;20181;-62
2023/09/11 16:45:33;;;;;;;2.50;2.17;;;32.40;71.10;;;;;;5010244;28;20196;-62